Shinyo Maru — JD3650 — position and weather

sailwx.info

Track history (hours):
 
Tides and Currents Weather Stations Pressure Air Temp Water Temp Dewpoint Dewpoint Depression Visibility Wind Speed Wind Dir Waves Ship Positions

Shinyo Maru

Last reported at 2018-Jun-24 03:30 UTC. Time now 2018-Jun-24 03:42 UTC.
Position N 35°29' E 139°39'.

Length 72 m; draft 3.8 m.

Type: Tanker. MMSI: 431005249.

Date/timePositionNaut miles runAvg speedWind from/ knotsBaromVisibWave heightAir tempDewpointWater temp
2018-Jun-24 03:30N 35°29' E 139°39'0 0.0
2018-Jun-24 03:00N 35°29' E 139°39'0 0.0
2018-Jun-24 02:30N 35°29' E 139°39'0 0.0
2018-Jun-24 02:00N 35°29' E 139°39'0 0.0
2018-Jun-24 01:30N 35°29' E 139°39'0 0.0
2018-Jun-24 01:00N 35°29' E 139°39'0 0.0
2018-Jun-24 00:29N 35°29' E 139°39'0 0.0
2018-Jun-23 23:59N 35°29' E 139°39'0 0.0
2018-Jun-23 23:30N 35°29' E 139°39'0 0.0
2018-Jun-23 23:00N 35°29' E 139°39'0 0.0
2018-Jun-23 22:30N 35°29' E 139°39'0 0.0
2018-Jun-23 22:00N 35°29' E 139°39'0 0.0
2018-Jun-23 21:30N 35°29' E 139°39'0 0.0
2018-Jun-23 21:00N 35°29' E 139°39'0 0.0
2018-Jun-23 20:30N 35°29' E 139°39'0 0.0
2018-Jun-23 20:00N 35°29' E 139°39'0 0.0
2018-Jun-23 19:30N 35°29' E 139°39'0 0.0
2018-Jun-23 19:00N 35°29' E 139°39'0 0.0
2018-Jun-23 18:30N 35°29' E 139°39'0 0.0
2018-Jun-23 18:00N 35°29' E 139°39'0 0.0
2018-Jun-23 17:30N 35°29' E 139°39'0 0.0
2018-Jun-23 16:58N 35°29' E 139°39'0 0.0
2018-Jun-23 16:30N 35°29' E 139°39'0 0.0
2018-Jun-23 16:00N 35°29' E 139°39'0 0.0
2018-Jun-23 15:30N 35°29' E 139°39'0 0.0
2018-Jun-23 15:00N 35°29' E 139°39'0 0.0
2018-Jun-23 14:30N 35°29' E 139°39'0 0.0
2018-Jun-23 14:00N 35°29' E 139°39'0 0.0
2018-Jun-23 13:30N 35°29' E 139°39'0 0.0
2018-Jun-23 13:00N 35°29' E 139°39'0 0.0
2018-Jun-23 12:30N 35°29' E 139°39'0 0.0
2018-Jun-23 12:00N 35°29' E 139°39'0 0.0
2018-Jun-23 11:30N 35°29' E 139°39'0 0.0
2018-Jun-23 11:00N 35°29' E 139°39'0 0.0
2018-Jun-23 10:30N 35°29' E 139°39'0 0.0
2018-Jun-23 09:59N 35°29' E 139°39'0 0.0
2018-Jun-23 09:30N 35°29' E 139°39'0 0.0
2018-Jun-23 08:59N 35°29' E 139°39'0 0.0
2018-Jun-23 08:30N 35°29' E 139°39'0 0.0
2018-Jun-23 08:00N 35°29' E 139°39'0 0.0
2018-Jun-23 07:30N 35°29' E 139°39'0 0.0
2018-Jun-23 07:00N 35°29' E 139°39'0 0.0
2018-Jun-23 06:30N 35°29' E 139°39'0 0.0
2018-Jun-23 06:00N 35°29' E 139°39'0 0.0
2018-Jun-23 05:30N 35°29' E 139°39'0 0.0
2018-Jun-23 05:00N 35°29' E 139°39'0 0.0
2018-Jun-23 04:30N 35°29' E 139°39'0 0.0
2018-Jun-23 04:00N 35°29' E 139°39'0 0.0
2018-Jun-23 03:30N 35°29' E 139°39'0 0.0
2018-Jun-23 03:00N 35°29' E 139°39'2 4.5
2018-Jun-23 02:30N 35°27' E 139°41'4 7.8
2018-Jun-23 02:00N 35°24' E 139°44'1 1.4
2018-Jun-23 01:30N 35°23' E 139°44'0 0.0
2018-Jun-23 00:59N 35°23' E 139°44'0 0.0
2018-Jun-23 00:29N 35°23' E 139°44'0 0.0
2018-Jun-22 23:59N 35°23' E 139°44'0 0.1
2018-Jun-22 23:29N 35°23' E 139°44'0 0.0
2018-Jun-22 22:59N 35°23' E 139°44'0 0.0
2018-Jun-22 22:26N 35°23' E 139°44'0 0.0
2018-Jun-22 21:59N 35°23' E 139°44'0 0.0
2018-Jun-22 21:29N 35°23' E 139°44'0 0.0
2018-Jun-22 20:56N 35°23' E 139°44'0 0.0
2018-Jun-22 20:29N 35°23' E 139°44'0 0.0
2018-Jun-22 19:59N 35°23' E 139°44'0 0.0
2018-Jun-22 19:29N 35°23' E 139°44'0 0.0
2018-Jun-22 18:59N 35°23' E 139°44'0 0.0
2018-Jun-22 18:30N 35°23' E 139°44'4 7.6
2018-Jun-22 18:00N 35°20' E 139°43'612.6
2018-Jun-22 17:30N 35°14' E 139°47'  
2018-Jun-15 05:55N 35°13' E 139°46'410.5
2018-Jun-15 05:31N 35°17' E 139°45'611.4
2018-Jun-15 05:00N 35°22' E 139°42'612.1
2018-Jun-15 04:30N 35°27' E 139°47'  
Track history (hours):
 
Tides and Currents Weather Stations Pressure Air Temp Water Temp Dewpoint Dewpoint Depression Visibility Wind Speed Wind Dir Waves Ship Positions

Shinyo Maru

Last reported at 2018-Jun-24 03:30 UTC. Time now 2018-Jun-24 03:42 UTC.
Position N 35°29' E 139°39'.

Length 72 m; draft 3.8 m.

Type: Tanker. MMSI: 431005249.

Date/timePositionNaut miles runAvg speedWind from/ knotsBaromVisibWave heightAir tempDewpointWater temp
2018-Jun-24 03:30N 35°29' E 139°39'0 0.0
2018-Jun-24 03:00N 35°29' E 139°39'0 0.0
2018-Jun-24 02:30N 35°29' E 139°39'0 0.0
2018-Jun-24 02:00N 35°29' E 139°39'0 0.0
2018-Jun-24 01:30N 35°29' E 139°39'0 0.0
2018-Jun-24 01:00N 35°29' E 139°39'0 0.0
2018-Jun-24 00:29N 35°29' E 139°39'0 0.0
2018-Jun-23 23:59N 35°29' E 139°39'0 0.0
2018-Jun-23 23:30N 35°29' E 139°39'0 0.0
2018-Jun-23 23:00N 35°29' E 139°39'0 0.0
2018-Jun-23 22:30N 35°29' E 139°39'0 0.0
2018-Jun-23 22:00N 35°29' E 139°39'0 0.0
2018-Jun-23 21:30N 35°29' E 139°39'0 0.0
2018-Jun-23 21:00N 35°29' E 139°39'0 0.0
2018-Jun-23 20:30N 35°29' E 139°39'0 0.0
2018-Jun-23 20:00N 35°29' E 139°39'0 0.0
2018-Jun-23 19:30N 35°29' E 139°39'0 0.0
2018-Jun-23 19:00N 35°29' E 139°39'0 0.0
2018-Jun-23 18:30N 35°29' E 139°39'0 0.0
2018-Jun-23 18:00N 35°29' E 139°39'0 0.0
2018-Jun-23 17:30N 35°29' E 139°39'0 0.0
2018-Jun-23 16:58N 35°29' E 139°39'0 0.0
2018-Jun-23 16:30N 35°29' E 139°39'0 0.0
2018-Jun-23 16:00N 35°29' E 139°39'0 0.0
2018-Jun-23 15:30N 35°29' E 139°39'0 0.0
2018-Jun-23 15:00N 35°29' E 139°39'0 0.0
2018-Jun-23 14:30N 35°29' E 139°39'0 0.0
2018-Jun-23 14:00N 35°29' E 139°39'0 0.0
2018-Jun-23 13:30N 35°29' E 139°39'0 0.0
2018-Jun-23 13:00N 35°29' E 139°39'0 0.0
2018-Jun-23 12:30N 35°29' E 139°39'0 0.0
2018-Jun-23 12:00N 35°29' E 139°39'0 0.0
2018-Jun-23 11:30N 35°29' E 139°39'0 0.0
2018-Jun-23 11:00N 35°29' E 139°39'0 0.0
2018-Jun-23 10:30N 35°29' E 139°39'0 0.0
2018-Jun-23 09:59N 35°29' E 139°39'0 0.0
2018-Jun-23 09:30N 35°29' E 139°39'0 0.0
2018-Jun-23 08:59N 35°29' E 139°39'0 0.0
2018-Jun-23 08:30N 35°29' E 139°39'0 0.0
2018-Jun-23 08:00N 35°29' E 139°39'0 0.0
2018-Jun-23 07:30N 35°29' E 139°39'0 0.0
2018-Jun-23 07:00N 35°29' E 139°39'0 0.0
2018-Jun-23 06:30N 35°29' E 139°39'0 0.0
2018-Jun-23 06:00N 35°29' E 139°39'0 0.0
2018-Jun-23 05:30N 35°29' E 139°39'0 0.0
2018-Jun-23 05:00N 35°29' E 139°39'0 0.0
2018-Jun-23 04:30N 35°29' E 139°39'0 0.0
2018-Jun-23 04:00N 35°29' E 139°39'0 0.0
2018-Jun-23 03:30N 35°29' E 139°39'0 0.0
2018-Jun-23 03:00N 35°29' E 139°39'2 4.5
2018-Jun-23 02:30N 35°27' E 139°41'4 7.8
2018-Jun-23 02:00N 35°24' E 139°44'1 1.4
2018-Jun-23 01:30N 35°23' E 139°44'0 0.0
2018-Jun-23 00:59N 35°23' E 139°44'0 0.0
2018-Jun-23 00:29N 35°23' E 139°44'0 0.0
2018-Jun-22 23:59N 35°23' E 139°44'0 0.1
2018-Jun-22 23:29N 35°23' E 139°44'0 0.0
2018-Jun-22 22:59N 35°23' E 139°44'0 0.0
2018-Jun-22 22:26N 35°23' E 139°44'0 0.0
2018-Jun-22 21:59N 35°23' E 139°44'0 0.0
2018-Jun-22 21:29N 35°23' E 139°44'0 0.0
2018-Jun-22 20:56N 35°23' E 139°44'0 0.0
2018-Jun-22 20:29N 35°23' E 139°44'0 0.0
2018-Jun-22 19:59N 35°23' E 139°44'0 0.0
2018-Jun-22 19:29N 35°23' E 139°44'0 0.0
2018-Jun-22 18:59N 35°23' E 139°44'0 0.0
2018-Jun-22 18:30N 35°23' E 139°44'4 7.6
2018-Jun-22 18:00N 35°20' E 139°43'612.6
2018-Jun-22 17:30N 35°14' E 139°47'  
2018-Jun-15 05:55N 35°13' E 139°46'410.5
2018-Jun-15 05:31N 35°17' E 139°45'611.4
2018-Jun-15 05:00N 35°22' E 139°42'612.1
2018-Jun-15 04:30N 35°27' E 139°47'  

Dump ship's entire track history